VVCTVVTS

Guest
Details From VVCT - CAN THO
To VVTS - TAN SON NHAT INTL
Flight Number -
Tags generated
Created
Modified
Stats Distance 71 nm / 131 km
Max Altitude 8,800 ft / 2,682 m
Waypoints 4
Social Downloads 2
Likes 0
Share VATSIM

Download

Looking for another format? Having issues loading an existing format? Contact us
Advertisement - Login to hide

Notes

Basic altitude profile: - Ascent Rate: 2500ft/min - Ascent Speed: 250kts - Cruise Altitude: 35000ft - Cruise Speed: 420kts - Descent Rate: 1500ft/min - Descent Speed: 250kts Options: - Use NATs: yes - Use PACOTS: yes - Use low airways: yes - Use high airways: yes

Route

VVCT KANTA W16 TSN VVTS

ID Type Via Altitude Latitude Longitude Leg Dist Tot Dist Heading (true) Name
O VVCT APT - 0 ft / 0 m 10.08512˚ 105.71192˚ - 0 nm - CAN THO
KANTA FIX - 8,800 ft / 2,682 m 10.38806˚ 106.10694˚ 29 nm 29 nm 52° / 52° -
TSN VOR W16 (AWY-LO) 4,000 ft / 1,219 m 10.81643˚ 106.64558˚ 40 nm 70 nm 51° / 51° TANSONNHAT VOR-DME
O VVTS APT - 0 ft / 0 m 10.81875˚ 106.65173˚ 0 nm 70 nm 69° / 69° TAN SON NHAT INTL

Altitude Profile

Advertisement - Login to hide

VVCT

Details ICAO VVCT (VCA)
Name CAN THO
Region Vietnam
Timezone Asia/Ho_Chi_Minh (UTC+7.0)
Stats Elevation 9 ft / 3 m (AMSL)
Location 10.085121° 105.711922°
Runways 1
Magnetic Variation 0.384° W

METAR

VVCT 112100Z 00000KT 7000 FEW015 25/23 Q1012 NOSIG

Decode

TAF

TAF VVCT 111700Z 1118/1218 VRB03KT 9999 SCT017 SCT040 BECMG 1121/1122 3000 BR BECMG 1200/1201 12008KT 9999 NSW

Decode

Departure Runways

ID Width Length Bearing (true) Bearing (mag) Surface Threshold Offset Overrun Length
06 100 ft / 30 m 7,891 ft / 2,405 m 59.86° 60.24° Asphalt 0 ft / 0 m 505 ft / 154 m
24 100 ft / 30 m 7,891 ft / 2,405 m 239.86° 240.24° Asphalt 0 ft / 0 m 460 ft / 140 m

VVTS

Details ICAO VVTS (SGN)
Name TAN SON NHAT INTL
Region Vietnam
Timezone Asia/Ho_Chi_Minh (UTC+7.0)
Stats Elevation 33 ft / 10 m (AMSL)
Location 10.818750° 106.651735°
Runways 2
Magnetic Variation 0.487° W

METAR

VVTS 112100Z 33004KT 9999 FEW017 25/24 Q1011 NOSIG

Decode

TAF

TAF VVTS 111700Z 1118/1224 15006KT 9999 SCT017 BECMG 1121/1122 VRB03KT 5000 BR BECMG 1200/11737 SPECI YPEA 111730Z AUTO 33004KT 9999 // BKN010 BKN115 21/18 Q1008

Decode

Destination Runways

ID Width Length Bearing (true) Bearing (mag) Surface Threshold Offset Overrun Length
07L 148 ft / 45 m 9,998 ft / 3,047 m 69.00° 69.49° Asphalt 0 ft / 0 m 1,040 ft / 317 m
07R 148 ft / 45 m 12,617 ft / 3,846 m 68.90° 69.39° Concrete 2,543 ft / 775 m 863 ft / 263 m
25L 148 ft / 45 m 12,617 ft / 3,846 m 248.90° 249.39° Concrete 0 ft / 0 m 1,027 ft / 313 m
25R 148 ft / 45 m 9,998 ft / 3,047 m 249.00° 249.49° Asphalt 0 ft / 0 m 1,053 ft / 321 m

Approach Navaids

Runway Type Ident Frequency Range Bearing (true) Bearing (mag) Slope Elevation
25L Localiser SGN 108.30 MHz 18 nm / 33 km 248.96° 249.45° - 24 ft / 7 m (AMSL)
25L Glidescope SGN 108.30 MHz 10 nm / 19 km 248.90° 249.39° 3.00° 49 ft / 15 m (AMSL)
25L DME SGN 108.30 MHz 18 nm / 33 km - - - 33 ft / 10 m (AMSL)
25R Localiser HCM 110.50 MHz 18 nm / 33 km 248.99° 249.48° - 25 ft / 8 m (AMSL)
25R Glidescope HCM 110.50 MHz 10 nm / 19 km 249.00° 249.49° 3.00° 32 ft / 10 m (AMSL)
25R DME HCM 110.50 MHz 18 nm / 33 km - - - 33 ft / 10 m (AMSL)

Popular Alternatives